createdAt,value
2022-08-17T00:00:33.261Z,20.78
2022-08-17T00:03:37.438Z,20.61
2022-08-17T00:06:27.754Z,20.59
2022-08-17T00:09:00.985Z,20.66
2022-08-17T00:11:42.444Z,20.57
2022-08-17T00:14:29.793Z,20.59
2022-08-17T00:16:57.786Z,20.49
2022-08-17T00:19:26.122Z,20.45
2022-08-17T00:22:32.060Z,20.49
2022-08-17T00:24:44.365Z,20.54
2022-08-17T00:27:11.186Z,20.46
2022-08-17T00:29:38.012Z,20.55
2022-08-17T00:33:12.510Z,20.48
2022-08-17T00:34:51.910Z,20.45
2022-08-17T00:37:18.765Z,20.46
2022-08-17T00:39:45.655Z,20.30
2022-08-17T00:42:18.919Z,20.40
2022-08-17T00:44:46.425Z,20.39
2022-08-17T00:47:14.295Z,20.34
2022-08-17T00:49:41.245Z,20.34
2022-08-17T00:52:16.490Z,20.44
2022-08-17T00:54:47.501Z,20.37
2022-08-17T00:57:23.870Z,20.35
2022-08-17T01:00:06.966Z,20.17
2022-08-17T01:02:42.163Z,20.28
2022-08-17T01:05:18.466Z,20.24
2022-08-17T01:07:48.179Z,20.15
2022-08-17T01:10:57.287Z,20.15
2022-08-17T01:13:25.596Z,20.03
2022-08-17T01:16:06.881Z,19.97
2022-08-17T01:18:34.791Z,19.95
2022-08-17T01:21:15.543Z,20.01
2022-08-17T01:23:42.415Z,19.96
2022-08-17T01:26:09.243Z,20.02
2022-08-17T01:28:54.203Z,19.89
2022-08-17T01:31:25.273Z,20.02
2022-08-17T01:33:52.647Z,19.98
2022-08-17T01:36:19.525Z,19.99
2022-08-17T01:38:46.365Z,19.83
2022-08-17T01:41:16.336Z,19.91
2022-08-17T01:43:57.312Z,19.76
2022-08-17T01:46:36.540Z,19.86
2022-08-17T01:49:11.507Z,19.71
2022-08-17T01:51:39.058Z,19.72
2022-08-17T01:54:12.714Z,19.75
2022-08-17T01:56:47.392Z,19.66
2022-08-17T01:59:15.787Z,19.67
2022-08-17T02:01:43.572Z,19.74
2022-08-17T02:04:11.567Z,19.72
2022-08-17T02:06:52.734Z,19.76
2022-08-17T02:09:25.916Z,19.80
2022-08-17T02:11:56.362Z,19.76
2022-08-17T02:14:24.036Z,19.66
2022-08-17T02:16:51.820Z,19.59
2022-08-17T02:19:19.653Z,19.68
2022-08-17T02:21:51.002Z,19.63
2022-08-17T02:24:58.006Z,19.56
2022-08-17T02:27:14.691Z,19.55
2022-08-17T02:29:41.522Z,19.55
2022-08-17T02:32:27.412Z,19.60
2022-08-17T02:34:58.526Z,19.53
2022-08-17T02:37:27.315Z,19.63
2022-08-17T02:39:56.874Z,19.52
2022-08-17T02:42:35.493Z,19.60
2022-08-17T02:45:05.590Z,19.57
2022-08-17T02:47:32.425Z,19.42
2022-08-17T02:49:59.247Z,19.44
2022-08-17T02:52:43.020Z,19.48
2022-08-17T02:55:34.690Z,19.54
2022-08-17T02:58:03.595Z,19.52
2022-08-17T03:00:38.248Z,19.48
2022-08-17T03:03:07.959Z,19.41
2022-08-17T03:05:37.525Z,19.43
2022-08-17T03:08:06.044Z,19.34
2022-08-17T03:10:33.886Z,19.24
2022-08-17T03:13:01.624Z,19.26
2022-08-17T03:15:33.440Z,19.33
2022-08-17T03:18:01.710Z,19.30
2022-08-17T03:20:31.512Z,19.30
2022-08-17T03:23:01.887Z,19.16
2022-08-17T03:25:38.227Z,19.15
2022-08-17T03:28:06.925Z,19.10
2022-08-17T03:30:34.640Z,19.16
2022-08-17T03:33:09.896Z,19.10
2022-08-17T03:35:40.322Z,19.11
2022-08-17T03:38:08.790Z,19.11
2022-08-17T03:40:56.705Z,19.01
2022-08-17T03:43:23.193Z,19.03
2022-08-17T03:46:27.103Z,19.10
2022-08-17T03:49:13.360Z,19.11
2022-08-17T03:51:58.994Z,19.16
2022-08-17T03:54:44.094Z,19.04
2022-08-17T03:57:11.982Z,19.05
2022-08-17T03:59:39.491Z,19.01
2022-08-17T04:02:26.178Z,18.95
2022-08-17T04:04:53.837Z,19.01
2022-08-17T04:07:24.753Z,18.99
2022-08-17T04:09:51.787Z,18.93
2022-08-17T04:12:21.959Z,18.94
2022-08-17T04:14:52.715Z,19.00
2022-08-17T04:17:27.651Z,19.08
2022-08-17T04:19:55.802Z,19.06
2022-08-17T04:22:30.250Z,18.92
2022-08-17T04:25:10.210Z,19.13
2022-08-17T04:27:37.140Z,19.09
2022-08-17T04:30:07.188Z,18.97
2022-08-17T04:33:03.902Z,19.00
2022-08-17T04:35:49.019Z,19.05
2022-08-17T04:38:20.339Z,18.98
2022-08-17T04:41:06.733Z,18.82
2022-08-17T04:43:35.246Z,18.97
2022-08-17T04:46:12.553Z,19.08
2022-08-17T04:48:43.520Z,19.02
2022-08-17T04:51:20.216Z,19.05
2022-08-17T04:53:54.354Z,18.94
2022-08-17T04:56:23.953Z,19.04
2022-08-17T04:58:53.720Z,19.05
2022-08-17T05:01:24.099Z,19.00
2022-08-17T05:03:53.997Z,19.03
2022-08-17T05:06:21.566Z,18.99
2022-08-17T05:08:48.436Z,18.96
2022-08-17T05:11:15.799Z,19.04
2022-08-17T05:13:42.654Z,19.04
2022-08-17T05:16:09.693Z,18.96
2022-08-17T05:18:38.743Z,18.94
2022-08-17T05:21:06.786Z,18.94
2022-08-17T05:23:42.487Z,19.11
2022-08-17T05:26:22.603Z,19.19
2022-08-17T05:29:02.500Z,19.16
2022-08-17T05:31:30.737Z,19.06
2022-08-17T05:33:57.967Z,19.14
2022-08-17T05:36:43.349Z,19.14
2022-08-17T05:39:16.249Z,19.18
2022-08-17T05:41:43.918Z,19.21
2022-08-17T05:44:10.963Z,19.29
2022-08-17T05:46:41.929Z,19.28
2022-08-17T05:49:09.615Z,19.32
2022-08-17T05:52:07.856Z,19.34
2022-08-17T05:55:22.295Z,19.40
2022-08-17T05:58:27.343Z,19.43
2022-08-17T06:01:12.846Z,19.46
2022-08-17T06:04:11.209Z,19.46
2022-08-17T06:06:56.460Z,19.47
2022-08-17T06:09:40.484Z,19.60
2022-08-17T06:12:30.683Z,19.62
2022-08-17T06:15:50.891Z,19.58
2022-08-17T06:18:20.521Z,19.59
2022-08-17T06:20:56.915Z,19.65
2022-08-17T06:24:06.752Z,19.77
2022-08-17T06:26:42.783Z,19.87
2022-08-17T06:29:37.777Z,19.92
2022-08-17T06:32:08.579Z,19.91
2022-08-17T06:34:37.438Z,19.96
2022-08-17T06:37:48.808Z,20.07
2022-08-17T06:40:48.334Z,20.12
2022-08-17T06:43:40.221Z,20.05
2022-08-17T06:46:27.482Z,20.22
2022-08-17T06:49:21.929Z,20.28
2022-08-17T06:51:57.590Z,20.28
2022-08-17T06:54:36.353Z,20.38
2022-08-17T06:57:22.481Z,20.37
2022-08-17T06:59:56.847Z,20.48
2022-08-17T07:02:59.525Z,20.51
2022-08-17T07:05:36.626Z,20.56
2022-08-17T07:08:35.144Z,20.62
2022-08-17T07:11:09.958Z,20.57
2022-08-17T07:14:03.925Z,20.67
2022-08-17T07:16:36.351Z,20.71
2022-08-17T07:19:07.283Z,20.72
2022-08-17T07:22:05.940Z,20.82
2022-08-17T07:24:48.837Z,20.86
2022-08-17T07:27:22.434Z,20.81
2022-08-17T07:30:21.173Z,20.87
2022-08-17T07:33:13.517Z,21.00
2022-08-17T07:35:44.937Z,21.06
2022-08-17T07:38:26.823Z,21.14
2022-08-17T07:41:03.479Z,21.18
2022-08-17T07:43:32.980Z,21.23
2022-08-17T07:46:39.794Z,21.29
2022-08-17T07:49:09.382Z,21.34
2022-08-17T07:51:47.656Z,21.49
2022-08-17T07:54:23.236Z,21.58
2022-08-17T07:56:57.849Z,21.61
2022-08-17T07:59:33.899Z,21.65
2022-08-17T08:02:06.726Z,21.68
2022-08-17T08:05:02.130Z,21.73
2022-08-17T08:07:42.352Z,21.73
2022-08-17T08:10:13.673Z,21.86
2022-08-17T08:12:47.795Z,21.85
2022-08-17T08:15:21.756Z,21.84
2022-08-17T08:17:59.273Z,21.75
2022-08-17T08:21:09.997Z,21.97
2022-08-17T08:23:37.016Z,22.03
2022-08-17T08:26:39.288Z,22.23
2022-08-17T08:29:39.773Z,22.52
2022-08-17T08:32:40.472Z,22.69
2022-08-17T08:35:16.857Z,22.64
2022-08-17T08:38:02.929Z,22.66
2022-08-17T08:41:13.341Z,22.52
2022-08-17T08:43:52.209Z,22.70
2022-08-17T08:47:00.306Z,22.71
2022-08-17T08:50:05.578Z,22.66
2022-08-17T08:53:04.429Z,22.78
2022-08-17T08:55:56.036Z,22.76
2022-08-17T08:58:53.481Z,22.79
2022-08-17T09:01:49.856Z,22.77
2022-08-17T09:04:44.976Z,22.76
2022-08-17T09:07:50.357Z,22.77
2022-08-17T09:10:49.658Z,22.76
2022-08-17T09:13:39.250Z,22.65
2022-08-17T09:16:36.041Z,22.77
2022-08-17T09:19:53.153Z,22.80
2022-08-17T09:22:31.386Z,22.74
2022-08-17T09:25:09.340Z,22.83
2022-08-17T09:28:03.680Z,22.91
2022-08-17T09:30:46.184Z,23.04
2022-08-17T09:33:22.734Z,23.16
2022-08-17T09:36:16.284Z,23.21
2022-08-17T09:39:07.310Z,23.32
2022-08-17T09:41:51.980Z,23.36
2022-08-17T09:44:31.211Z,23.34
2022-08-17T09:47:20.895Z,23.28
2022-08-17T09:49:54.149Z,23.18
2022-08-17T09:52:28.770Z,23.23
2022-08-17T09:54:57.810Z,23.27
2022-08-17T09:58:08.852Z,23.31
2022-08-17T10:00:41.059Z,23.35
2022-08-17T10:03:32.357Z,23.34
2022-08-17T10:06:13.323Z,23.47
2022-08-17T10:09:06.551Z,23.43
2022-08-17T10:12:09.315Z,23.49
2022-08-17T10:15:08.123Z,23.53
2022-08-17T10:18:19.916Z,23.55
2022-08-17T10:21:20.200Z,23.56
2022-08-17T10:24:13.753Z,23.58
2022-08-17T10:26:55.908Z,23.54
2022-08-17T10:29:48.546Z,23.58
2022-08-17T10:32:41.100Z,23.63
2022-08-17T10:35:43.483Z,23.81
2022-08-17T10:38:39.306Z,23.80
2022-08-17T10:41:43.623Z,23.95
2022-08-17T10:44:47.681Z,23.92
2022-08-17T10:47:18.237Z,24.09
2022-08-17T10:49:53.867Z,24.29
2022-08-17T10:52:21.887Z,24.33
2022-08-17T10:55:18.131Z,24.25
2022-08-17T10:57:49.561Z,24.17
2022-08-17T11:00:43.030Z,24.21
2022-08-17T11:03:23.520Z,24.33
2022-08-17T11:06:01.047Z,24.44
2022-08-17T11:08:57.408Z,24.43
2022-08-17T11:11:45.305Z,24.58
2022-08-17T11:14:26.006Z,24.77
2022-08-17T11:17:15.686Z,24.84
2022-08-17T11:20:07.259Z,24.88
2022-08-17T11:23:02.674Z,24.65
2022-08-17T11:25:40.172Z,24.70
2022-08-17T11:28:18.064Z,24.59
2022-08-17T11:30:57.011Z,24.52
2022-08-17T11:33:30.385Z,24.49
2022-08-17T11:36:46.642Z,24.42
2022-08-17T11:39:33.198Z,24.40
2022-08-17T11:42:38.857Z,24.40
2022-08-17T11:45:44.993Z,24.42
2022-08-17T11:49:08.509Z,24.44
2022-08-17T11:52:01.469Z,24.41
2022-08-17T11:54:34.175Z,24.35
2022-08-17T11:57:27.176Z,24.31
2022-08-17T11:59:55.129Z,24.26
2022-08-17T12:02:34.804Z,24.27
2022-08-17T12:05:22.910Z,24.27
2022-08-17T12:08:04.519Z,24.25
2022-08-17T12:10:36.023Z,24.18
2022-08-17T12:13:11.398Z,24.35
2022-08-17T12:15:48.566Z,24.53
2022-08-17T12:18:32.314Z,24.82
2022-08-17T12:21:21.047Z,25.07
2022-08-17T12:24:10.252Z,25.38
2022-08-17T12:26:37.655Z,25.42
2022-08-17T12:29:18.427Z,25.45
2022-08-17T12:32:02.205Z,25.41
2022-08-17T12:34:40.779Z,25.53
2022-08-17T12:37:32.393Z,25.61
2022-08-17T12:40:28.008Z,25.68
2022-08-17T12:43:02.058Z,25.68
2022-08-17T12:45:39.391Z,25.66
2022-08-17T12:48:16.887Z,25.75
2022-08-17T12:50:46.031Z,25.88
2022-08-17T12:53:23.596Z,25.89
2022-08-17T12:55:51.291Z,25.92
2022-08-17T12:58:37.914Z,26.04
2022-08-17T13:01:09.804Z,26.15
2022-08-17T13:03:51.476Z,26.16
2022-08-17T13:06:34.600Z,26.09
2022-08-17T13:09:17.921Z,26.14
2022-08-17T13:11:56.213Z,26.32
2022-08-17T13:14:23.049Z,26.39
2022-08-17T13:16:56.086Z,26.56
2022-08-17T13:19:40.539Z,26.53
2022-08-17T13:22:15.308Z,26.73
2022-08-17T13:25:03.538Z,26.76
2022-08-17T13:27:30.879Z,26.65
2022-08-17T13:30:08.335Z,26.61
2022-08-17T13:32:46.416Z,26.65
2022-08-17T13:35:40.566Z,26.69
2022-08-17T13:38:39.417Z,26.62
2022-08-17T13:41:07.434Z,26.66
2022-08-17T13:43:45.349Z,26.74
2022-08-17T13:46:20.662Z,26.73
2022-08-17T13:49:06.291Z,26.80
2022-08-17T13:51:49.440Z,26.75
2022-08-17T13:54:28.252Z,27.12
2022-08-17T13:57:00.931Z,27.07
2022-08-17T13:59:53.422Z,27.35
2022-08-17T14:02:21.536Z,27.27
2022-08-17T14:04:48.836Z,27.28
2022-08-17T14:07:16.036Z,27.41
2022-08-17T14:10:07.418Z,27.85
2022-08-17T14:12:38.703Z,28.05
2022-08-17T14:15:06.709Z,27.98
2022-08-17T14:17:38.092Z,28.11
2022-08-17T14:20:09.551Z,28.03
2022-08-17T14:22:39.540Z,27.83
2022-08-17T14:25:08.577Z,27.70
2022-08-17T14:27:43.600Z,27.68
2022-08-17T14:30:23.804Z,27.66
2022-08-17T14:32:52.328Z,27.66
2022-08-17T14:35:22.549Z,27.64
2022-08-17T14:37:50.677Z,27.71
2022-08-17T14:40:20.682Z,27.68
2022-08-17T14:42:48.063Z,27.74
2022-08-17T14:45:29.592Z,27.65
2022-08-17T14:48:04.034Z,27.67
2022-08-17T14:50:32.012Z,27.64
2022-08-17T14:53:03.804Z,27.62
2022-08-17T14:55:31.121Z,27.58
2022-08-17T14:57:58.432Z,27.51
2022-08-17T15:00:26.720Z,27.60
2022-08-17T15:02:58.570Z,27.60
2022-08-17T15:05:31.767Z,27.50
2022-08-17T15:08:00.932Z,27.60
2022-08-17T15:10:29.371Z,27.54
2022-08-17T15:12:56.512Z,27.63
2022-08-17T15:15:24.429Z,27.65
2022-08-17T15:17:51.948Z,27.76
2022-08-17T15:20:27.522Z,27.80
2022-08-17T15:22:58.727Z,27.78
2022-08-17T15:25:28.867Z,27.87
2022-08-17T15:27:56.147Z,27.80
2022-08-17T15:30:24.115Z,27.82
2022-08-17T15:32:55.309Z,27.80
2022-08-17T15:35:30.142Z,27.82
2022-08-17T15:38:10.176Z,27.73
2022-08-17T15:40:42.937Z,27.77
2022-08-17T15:43:26.424Z,27.72
2022-08-17T15:46:14.987Z,27.74
2022-08-17T15:48:44.747Z,27.71
2022-08-17T15:51:32.403Z,27.71
2022-08-17T15:54:22.147Z,27.69
2022-08-17T15:56:49.563Z,27.63
2022-08-17T15:59:16.360Z,27.58
2022-08-17T16:03:15.300Z,27.59
2022-08-17T16:04:31.646Z,27.63
2022-08-17T16:06:59.923Z,27.72
2022-08-17T16:09:27.459Z,27.84
2022-08-17T16:11:56.155Z,27.81
2022-08-17T16:14:33.870Z,28.07
2022-08-17T16:17:03.352Z,28.11
2022-08-17T16:19:30.630Z,27.99
2022-08-17T16:21:57.445Z,27.81
2022-08-17T16:24:24.266Z,27.68
2022-08-17T16:26:51.087Z,27.68
2022-08-17T16:29:17.897Z,27.79
2022-08-17T16:31:44.744Z,27.69
2022-08-17T16:34:16.838Z,27.66
2022-08-17T16:36:55.127Z,27.49
2022-08-17T16:39:28.901Z,27.51
2022-08-17T16:41:56.441Z,27.49
2022-08-17T16:44:23.586Z,27.44
2022-08-17T16:46:50.681Z,27.39
2022-08-17T16:49:36.200Z,27.30
2022-08-17T16:52:07.240Z,27.23
2022-08-17T16:54:35.487Z,27.28
2022-08-17T16:57:04.937Z,27.20
2022-08-17T16:59:41.042Z,27.17
2022-08-17T17:02:14.358Z,27.12
2022-08-17T17:04:56.347Z,27.11
2022-08-17T17:08:14.447Z,27.07
2022-08-17T17:10:50.870Z,27.04
2022-08-17T17:13:25.461Z,27.00
2022-08-17T17:16:12.100Z,27.00
2022-08-17T17:19:11.922Z,26.97
2022-08-17T17:21:56.831Z,26.79
2022-08-17T17:24:41.415Z,26.84
2022-08-17T17:27:29.515Z,26.79
2022-08-17T17:30:05.192Z,26.80
2022-08-17T17:32:41.685Z,26.80
2022-08-17T17:35:34.576Z,26.80
2022-08-17T17:38:12.551Z,26.76
2022-08-17T17:40:50.111Z,26.72
2022-08-17T17:43:40.116Z,26.63
2022-08-17T17:46:27.039Z,26.70
2022-08-17T17:48:55.183Z,26.57
2022-08-17T17:52:08.874Z,26.54
2022-08-17T17:54:56.553Z,26.50
2022-08-17T17:57:42.037Z,26.41
2022-08-17T18:00:15.015Z,26.31
2022-08-17T18:03:08.847Z,26.30
2022-08-17T18:05:53.643Z,26.18
2022-08-17T18:09:04.880Z,26.19
2022-08-17T18:11:53.925Z,26.14
2022-08-17T18:14:51.438Z,26.03
2022-08-17T18:17:18.441Z,26.06
2022-08-17T18:19:45.265Z,26.02
2022-08-17T18:22:22.067Z,26.01
2022-08-17T18:24:57.106Z,26.00
2022-08-17T18:27:38.660Z,25.91
2022-08-17T18:30:14.437Z,25.91
2022-08-17T18:32:43.613Z,25.89
2022-08-17T18:35:16.133Z,25.82
2022-08-17T18:37:53.158Z,25.72
2022-08-17T18:40:20.091Z,25.78
2022-08-17T18:43:08.751Z,25.79
2022-08-17T18:45:48.915Z,25.69
2022-08-17T18:48:26.679Z,25.76
2022-08-17T18:50:58.739Z,25.69
2022-08-17T18:53:41.182Z,25.66
2022-08-17T18:56:27.621Z,25.61
2022-08-17T18:59:05.935Z,25.60
2022-08-17T19:01:54.470Z,25.52
2022-08-17T19:04:39.676Z,25.50
2022-08-17T19:07:26.687Z,25.54
2022-08-17T19:10:14.766Z,25.45
2022-08-17T19:13:28.112Z,25.38
2022-08-17T19:16:27.781Z,25.34
2022-08-17T19:19:12.512Z,25.33
2022-08-17T19:21:53.024Z,25.23
2022-08-17T19:24:24.333Z,25.24
2022-08-17T19:27:16.574Z,25.21
2022-08-17T19:29:57.553Z,25.20
2022-08-17T19:32:34.642Z,25.17
2022-08-17T19:35:05.145Z,25.15
2022-08-17T19:38:02.649Z,25.07
2022-08-17T19:41:02.704Z,25.10
2022-08-17T19:43:53.750Z,25.06
2022-08-17T19:47:17.178Z,25.04
2022-08-17T19:50:08.687Z,24.92
2022-08-17T19:52:53.928Z,25.03
2022-08-17T19:55:48.434Z,25.00
2022-08-17T19:59:01.067Z,24.97
2022-08-17T20:01:49.290Z,24.94
2022-08-17T20:04:41.048Z,24.88
2022-08-17T20:07:14.032Z,24.83
2022-08-17T20:10:06.760Z,24.83
2022-08-17T20:12:39.608Z,24.82
2022-08-17T20:15:24.824Z,24.77
2022-08-17T20:17:52.211Z,24.65
2022-08-17T20:20:35.274Z,24.70
2022-08-17T20:23:28.221Z,24.65
2022-08-17T20:26:19.415Z,24.57
2022-08-17T20:29:14.461Z,24.58
2022-08-17T20:31:55.238Z,24.51
2022-08-17T20:34:33.715Z,24.50
2022-08-17T20:37:13.217Z,24.48
2022-08-17T20:40:05.611Z,24.46
2022-08-17T20:42:34.034Z,24.44
2022-08-17T20:45:20.686Z,24.38
2022-08-17T20:48:21.630Z,24.35
2022-08-17T20:50:51.651Z,24.24
2022-08-17T20:53:53.894Z,24.26
2022-08-17T20:56:46.373Z,24.24
2022-08-17T20:59:30.282Z,24.20
2022-08-17T21:02:21.907Z,24.16
2022-08-17T21:04:52.763Z,24.13
2022-08-17T21:07:42.911Z,24.09
2022-08-17T21:10:25.498Z,24.00
2022-08-17T21:13:16.308Z,23.99
2022-08-17T21:16:21.578Z,23.93
2022-08-17T21:19:31.070Z,23.93
2022-08-17T21:22:40.417Z,23.86
2022-08-17T21:25:22.464Z,23.83
2022-08-17T21:28:07.473Z,23.85
2022-08-17T21:30:39.803Z,23.81
2022-08-17T21:33:31.556Z,23.75
2022-08-17T21:36:13.406Z,23.79
2022-08-17T21:38:53.369Z,23.77
2022-08-17T21:41:30.705Z,23.82
2022-08-17T21:44:21.739Z,23.80
2022-08-17T21:46:52.310Z,23.68
2022-08-17T21:49:26.306Z,23.72
2022-08-17T21:51:56.957Z,23.49
2022-08-17T21:54:35.651Z,23.55
2022-08-17T21:57:06.642Z,23.47
2022-08-17T21:59:39.901Z,23.56
2022-08-17T22:02:24.579Z,23.54
2022-08-17T22:05:13.735Z,23.54
2022-08-17T22:08:08.686Z,23.53
2022-08-17T22:10:48.360Z,23.33
2022-08-17T22:13:23.224Z,23.38
2022-08-17T22:16:28.060Z,23.29
2022-08-17T22:18:58.073Z,23.21
2022-08-17T22:21:25.552Z,23.16
2022-08-17T22:24:06.920Z,23.19
2022-08-17T22:27:08.569Z,23.17
2022-08-17T22:29:53.361Z,23.21
2022-08-17T22:32:47.032Z,23.21
2022-08-17T22:35:29.216Z,23.19
2022-08-17T22:37:57.448Z,23.07
2022-08-17T22:40:32.797Z,23.18
2022-08-17T22:43:03.299Z,23.16
2022-08-17T22:45:31.101Z,23.04
2022-08-17T22:48:00.370Z,23.06
2022-08-17T22:50:31.008Z,23.05
2022-08-17T22:53:21.813Z,22.99
2022-08-17T22:56:14.092Z,22.96
2022-08-17T22:59:16.323Z,22.95
2022-08-17T23:02:05.753Z,22.81
2022-08-17T23:04:39.203Z,22.76
2022-08-17T23:07:08.629Z,22.73
2022-08-17T23:09:35.878Z,22.57
2022-08-17T23:12:11.548Z,22.61
2022-08-17T23:14:45.340Z,22.69
2022-08-17T23:17:13.404Z,22.52
2022-08-17T23:19:40.571Z,22.57
2022-08-17T23:22:10.798Z,22.53
2022-08-17T23:24:48.848Z,22.36
2022-08-17T23:27:16.704Z,22.28
2022-08-17T23:29:43.831Z,22.40
2022-08-17T23:32:14.590Z,22.51
2022-08-17T23:34:43.573Z,22.48
2022-08-17T23:37:12.037Z,22.42
2022-08-17T23:39:39.623Z,22.40
2022-08-17T23:42:09.689Z,22.34
2022-08-17T23:44:38.686Z,22.12
2022-08-17T23:47:06.396Z,22.11
2022-08-17T23:49:34.172Z,21.98
2022-08-17T23:52:05.309Z,22.02
2022-08-17T23:54:43.560Z,21.97
2022-08-17T23:57:17.708Z,21.96
2022-08-17T23:59:44.870Z,21.91
